OAL063 LGAV-LIPB
Flight info
| Callsign | OAL063 |
|---|---|
| Flight time | 1h 59m |
| Altitude | 36000 |
| Route | KOR UL53 KRK UL995 TIGRA DCT VIE DCT ERITU DCT BELOV DCT VIC |
| Aircraft | A320/M-SDE3FGHIRWY/LB1 |
Departure
| Time | 2026-04-15 11:12 |
|---|---|
| Airport | Athens Eleftherios Venizelos International Airport (LGAV) |
Arrival
| Time | 2026-04-15 13:11 |
|---|---|
| Airport | Bolzano Airport (LIPB) |
| Time | Latitude | Longitude | Altitude | Speed | Heading |
|---|---|---|---|---|---|
| 2026-04-15 10:31 | 37.93652 | 23.94883 | 301 ft | 0 kts | 306° |
| 2026-04-15 11:05 | 37.93651 | 23.94885 | 301 ft | 2 kts | 306° |
| 2026-04-15 11:05 | 37.93636 | 23.94913 | 301 ft | 4 kts | 301° |
| 2026-04-15 11:06 | 37.93624 | 23.94943 | 301 ft | 4 kts | 288° |
| 2026-04-15 11:06 | 37.93620 | 23.94974 | 300 ft | 4 kts | 241° |
| 2026-04-15 11:06 | 37.93627 | 23.94986 | 300 ft | 1 kts | 217° |
| 2026-04-15 11:06 | 37.93628 | 23.94987 | 303 ft | 0 kts | 217° |
| 2026-04-15 11:09 | 37.93620 | 23.94979 | 302 ft | 4 kts | 217° |
| 2026-04-15 11:09 | 37.93588 | 23.94948 | 300 ft | 8 kts | 217° |
| 2026-04-15 11:09 | 37.93536 | 23.94898 | 301 ft | 11 kts | 217° |
| 2026-04-15 11:09 | 37.93467 | 23.94851 | 301 ft | 12 kts | 173° |
| 2026-04-15 11:10 | 37.93410 | 23.94928 | 300 ft | 12 kts | 127° |
| 2026-04-15 11:10 | 37.93389 | 23.95034 | 298 ft | 15 kts | 72° |
| 2026-04-15 11:10 | 37.93425 | 23.95140 | 297 ft | 15 kts | 65° |
| 2026-04-15 11:10 | 37.93460 | 23.95228 | 294 ft | 8 kts | 63° |
| 2026-04-15 11:11 | 37.93492 | 23.95323 | 288 ft | 16 kts | 72° |
| 2026-04-15 11:11 | 37.93601 | 23.95522 | 282 ft | 51 kts | 41° |
| 2026-04-15 11:11 | 37.94044 | 23.95946 | 282 ft | 107 kts | 36° |
| 2026-04-15 11:11 | 37.94761 | 23.96619 | 302 ft | 148 kts | 37° |
| 2026-04-15 11:12 | 37.95652 | 23.97441 | 664 ft | 160 kts | 36° |
| 2026-04-15 11:12 | 37.96562 | 23.98305 | 1181 ft | 168 kts | 38° |
| 2026-04-15 11:12 | 37.97501 | 23.99243 | 1743 ft | 175 kts | 39° |
| 2026-04-15 11:12 | 37.98464 | 24.00194 | 2410 ft | 175 kts | 40° |
| 2026-04-15 11:13 | 37.99425 | 24.01132 | 3108 ft | 174 kts | 39° |
| 2026-04-15 11:13 | 38.00559 | 24.01573 | 3707 ft | 176 kts | 350° |
| 2026-04-15 11:13 | 38.01588 | 24.00789 | 4142 ft | 179 kts | 297° |
| 2026-04-15 11:13 | 38.01804 | 23.99227 | 4313 ft | 197 kts | 264° |
| 2026-04-15 11:14 | 38.01679 | 23.97310 | 4242 ft | 235 kts | 261° |
| 2026-04-15 11:14 | 38.01616 | 23.95150 | 4756 ft | 255 kts | 276° |
| 2026-04-15 11:14 | 38.01883 | 23.92851 | 5377 ft | 268 kts | 274° |
| 2026-04-15 11:14 | 38.01999 | 23.90481 | 6277 ft | 270 kts | 270° |
| 2026-04-15 11:15 | 38.02264 | 23.88127 | 7153 ft | 273 kts | 288° |
| 2026-04-15 11:15 | 38.03135 | 23.85967 | 7999 ft | 277 kts | 297° |
| 2026-04-15 11:15 | 38.04097 | 23.83839 | 8847 ft | 279 kts | 297° |
| 2026-04-15 11:15 | 38.05068 | 23.81698 | 9700 ft | 282 kts | 297° |
| 2026-04-15 11:16 | 38.06047 | 23.79532 | 10481 ft | 286 kts | 296° |
| 2026-04-15 11:16 | 38.07065 | 23.77261 | 10701 ft | 308 kts | 296° |
| 2026-04-15 11:16 | 38.08160 | 23.74805 | 10846 ft | 331 kts | 296° |
| 2026-04-15 11:16 | 38.09325 | 23.72191 | 11093 ft | 348 kts | 296° |
| 2026-04-15 11:17 | 38.10533 | 23.69496 | 11635 ft | 354 kts | 296° |
| 2026-04-15 11:17 | 38.11762 | 23.66761 | 12298 ft | 358 kts | 296° |
| 2026-04-15 11:17 | 38.12996 | 23.64010 | 12950 ft | 361 kts | 296° |
| 2026-04-15 11:17 | 38.14242 | 23.61227 | 13558 ft | 364 kts | 296° |
| 2026-04-15 11:18 | 38.15500 | 23.58412 | 14152 ft | 368 kts | 296° |
| 2026-04-15 11:18 | 38.16767 | 23.55575 | 14704 ft | 371 kts | 296° |
| 2026-04-15 11:18 | 38.18043 | 23.52718 | 15250 ft | 373 kts | 296° |
| 2026-04-15 11:18 | 38.19328 | 23.49831 | 15778 ft | 376 kts | 296° |
| 2026-04-15 11:19 | 38.20617 | 23.46927 | 16316 ft | 379 kts | 296° |
| 2026-04-15 11:19 | 38.21917 | 23.43995 | 16858 ft | 382 kts | 296° |
| 2026-04-15 11:19 | 38.23230 | 23.41041 | 17402 ft | 384 kts | 296° |
| 2026-04-15 11:19 | 38.24551 | 23.38070 | 17941 ft | 388 kts | 296° |
| 2026-04-15 11:20 | 38.25884 | 23.35067 | 18483 ft | 391 kts | 296° |
| 2026-04-15 11:20 | 38.27222 | 23.32045 | 18969 ft | 393 kts | 296° |
| 2026-04-15 11:20 | 38.28565 | 23.29005 | 19504 ft | 395 kts | 296° |
| 2026-04-15 11:20 | 38.29904 | 23.25974 | 20019 ft | 396 kts | 296° |
| 2026-04-15 11:21 | 38.31257 | 23.22908 | 20549 ft | 398 kts | 296° |
| 2026-04-15 11:21 | 38.32611 | 23.19832 | 21037 ft | 399 kts | 295° |
| 2026-04-15 11:21 | 38.33969 | 23.16738 | 21517 ft | 401 kts | 296° |
| 2026-04-15 11:21 | 38.35334 | 23.13637 | 21971 ft | 403 kts | 295° |
| 2026-04-15 11:22 | 38.36724 | 23.10480 | 22424 ft | 404 kts | 295° |
| 2026-04-15 11:22 | 38.38087 | 23.07387 | 22864 ft | 406 kts | 295° |
| 2026-04-15 11:22 | 38.39488 | 23.04198 | 23314 ft | 408 kts | 295° |
| 2026-04-15 11:22 | 38.40874 | 23.01035 | 23723 ft | 410 kts | 295° |
| 2026-04-15 11:23 | 38.42264 | 22.97851 | 24064 ft | 412 kts | 295° |
| 2026-04-15 11:23 | 38.43655 | 22.94657 | 24400 ft | 414 kts | 295° |
| 2026-04-15 11:23 | 38.45056 | 22.91440 | 24747 ft | 415 kts | 294° |
| 2026-04-15 11:23 | 38.46465 | 22.88212 | 25062 ft | 418 kts | 294° |
| 2026-04-15 11:24 | 38.47886 | 22.84966 | 25385 ft | 420 kts | 294° |
| 2026-04-15 11:24 | 38.49310 | 22.81707 | 25715 ft | 422 kts | 294° |
| 2026-04-15 11:24 | 38.50739 | 22.78422 | 26060 ft | 424 kts | 294° |
| 2026-04-15 11:24 | 38.52172 | 22.75116 | 26401 ft | 426 kts | 294° |
| 2026-04-15 11:25 | 38.53607 | 22.71803 | 26734 ft | 428 kts | 294° |
| 2026-04-15 11:25 | 38.55047 | 22.68484 | 27176 ft | 426 kts | 294° |
| 2026-04-15 11:25 | 38.56482 | 22.65183 | 27624 ft | 425 kts | 293° |
| 2026-04-15 11:25 | 38.57914 | 22.61886 | 28064 ft | 424 kts | 293° |
| 2026-04-15 11:26 | 38.59340 | 22.58596 | 28522 ft | 423 kts | 293° |
| 2026-04-15 11:26 | 38.60760 | 22.55311 | 28996 ft | 422 kts | 292° |
| 2026-04-15 11:26 | 38.62172 | 22.52039 | 29491 ft | 420 kts | 292° |
| 2026-04-15 11:26 | 38.63580 | 22.48774 | 29949 ft | 418 kts | 292° |
| 2026-04-15 11:27 | 38.64983 | 22.45516 | 30370 ft | 418 kts | 291° |
| 2026-04-15 11:27 | 38.66385 | 22.42256 | 30737 ft | 418 kts | 291° |
| 2026-04-15 11:27 | 38.67781 | 22.39005 | 31158 ft | 416 kts | 291° |
| 2026-04-15 11:27 | 38.69171 | 22.35763 | 31598 ft | 415 kts | 291° |
| 2026-04-15 11:28 | 38.70554 | 22.32535 | 32034 ft | 413 kts | 291° |
| 2026-04-15 11:28 | 38.71933 | 22.29314 | 32478 ft | 412 kts | 291° |
| 2026-04-15 11:28 | 38.73307 | 22.26105 | 32947 ft | 410 kts | 291° |
| 2026-04-15 11:28 | 38.74679 | 22.22902 | 33392 ft | 409 kts | 291° |
| 2026-04-15 11:29 | 38.76042 | 22.19714 | 33838 ft | 408 kts | 291° |
| 2026-04-15 11:29 | 38.77400 | 22.16533 | 34234 ft | 406 kts | 291° |
| 2026-04-15 11:29 | 38.78754 | 22.13356 | 34536 ft | 406 kts | 291° |
| 2026-04-15 11:29 | 38.80106 | 22.10179 | 34865 ft | 405 kts | 291° |
| 2026-04-15 11:30 | 38.81469 | 22.06972 | 35206 ft | 404 kts | 291° |
| 2026-04-15 11:30 | 38.82808 | 22.03816 | 35526 ft | 403 kts | 291° |
| 2026-04-15 11:30 | 38.84148 | 22.00657 | 35830 ft | 403 kts | 291° |
| 2026-04-15 11:30 | 38.85487 | 21.97505 | 36082 ft | 403 kts | 291° |
| 2026-04-15 11:31 | 38.88184 | 21.91110 | 36132 ft | 414 kts | 291° |
| 2026-04-15 11:31 | 38.90945 | 21.84561 | 36134 ft | 419 kts | 292° |
| 2026-04-15 11:32 | 38.93732 | 21.77981 | 36126 ft | 420 kts | 292° |
| 2026-04-15 11:32 | 38.96511 | 21.71382 | 36120 ft | 420 kts | 292° |
| 2026-04-15 11:33 | 38.98818 | 21.65886 | 36108 ft | 420 kts | 292° |
| 2026-04-15 11:33 | 39.01587 | 21.59271 | 36117 ft | 421 kts | 291° |
| 2026-04-15 11:34 | 39.04383 | 21.52605 | 36110 ft | 421 kts | 292° |
| 2026-04-15 11:34 | 39.07149 | 21.45969 | 36103 ft | 421 kts | 291° |
| 2026-04-15 11:35 | 39.09921 | 21.39316 | 36092 ft | 422 kts | 291° |
| 2026-04-15 11:35 | 39.12696 | 21.32649 | 36088 ft | 423 kts | 291° |
| 2026-04-15 11:36 | 39.15464 | 21.25969 | 36085 ft | 423 kts | 291° |
| 2026-04-15 11:36 | 39.18231 | 21.19286 | 36083 ft | 423 kts | 291° |
| 2026-04-15 11:37 | 39.20991 | 21.12598 | 36076 ft | 423 kts | 291° |
| 2026-04-15 11:37 | 39.23748 | 21.05900 | 36076 ft | 423 kts | 291° |
| 2026-04-15 11:38 | 39.26503 | 20.99197 | 36075 ft | 423 kts | 291° |
| 2026-04-15 11:38 | 39.29256 | 20.92489 | 36078 ft | 423 kts | 291° |
| 2026-04-15 11:39 | 39.32001 | 20.85781 | 36072 ft | 422 kts | 291° |
| 2026-04-15 11:39 | 39.34737 | 20.79074 | 36076 ft | 422 kts | 291° |
| 2026-04-15 11:40 | 39.37474 | 20.72360 | 36074 ft | 422 kts | 290° |
| 2026-04-15 11:40 | 39.40201 | 20.65652 | 36068 ft | 422 kts | 290° |
| 2026-04-15 11:41 | 39.42934 | 20.58920 | 36077 ft | 423 kts | 290° |
| 2026-04-15 11:41 | 39.45676 | 20.52140 | 36070 ft | 423 kts | 290° |
| 2026-04-15 11:42 | 39.48403 | 20.45390 | 36061 ft | 423 kts | 290° |
| 2026-04-15 11:42 | 39.51130 | 20.38635 | 36051 ft | 423 kts | 290° |
| 2026-04-15 11:43 | 39.53847 | 20.31874 | 36039 ft | 424 kts | 290° |
| 2026-04-15 11:43 | 39.56566 | 20.25100 | 36043 ft | 424 kts | 291° |
| 2026-04-15 11:44 | 39.59287 | 20.18304 | 36044 ft | 425 kts | 291° |
| 2026-04-15 11:44 | 39.62000 | 20.11491 | 36045 ft | 426 kts | 291° |
| 2026-04-15 11:45 | 39.64721 | 20.04654 | 36049 ft | 427 kts | 291° |
| 2026-04-15 11:45 | 39.67448 | 19.97810 | 36050 ft | 427 kts | 291° |
| 2026-04-15 11:46 | 39.70179 | 19.90942 | 36045 ft | 428 kts | 291° |
| 2026-04-15 11:46 | 39.72911 | 19.84057 | 36043 ft | 430 kts | 291° |
| 2026-04-15 11:47 | 39.75640 | 19.77139 | 36037 ft | 430 kts | 291° |
| 2026-04-15 11:47 | 39.78371 | 19.70209 | 36034 ft | 431 kts | 291° |
| 2026-04-15 11:48 | 39.81106 | 19.63249 | 36031 ft | 432 kts | 291° |
| 2026-04-15 11:48 | 39.83839 | 19.56271 | 36028 ft | 434 kts | 291° |
| 2026-04-15 11:49 | 39.86583 | 19.49263 | 36030 ft | 435 kts | 291° |
| 2026-04-15 11:49 | 39.89327 | 19.42230 | 36028 ft | 436 kts | 291° |
| 2026-04-15 11:50 | 39.92070 | 19.35177 | 36026 ft | 437 kts | 291° |
| 2026-04-15 11:50 | 39.94832 | 19.28059 | 36030 ft | 438 kts | 291° |
| 2026-04-15 11:51 | 39.97582 | 19.20958 | 36034 ft | 439 kts | 291° |
| 2026-04-15 11:51 | 40.00335 | 19.13841 | 36033 ft | 440 kts | 291° |
| 2026-04-15 11:52 | 40.03097 | 19.06699 | 36038 ft | 441 kts | 291° |
| 2026-04-15 11:52 | 40.06048 | 18.99644 | 36035 ft | 448 kts | 300° |
| 2026-04-15 11:53 | 40.10072 | 18.93328 | 36037 ft | 454 kts | 306° |
| 2026-04-15 11:53 | 40.14198 | 18.87076 | 36037 ft | 455 kts | 306° |
| 2026-04-15 11:54 | 40.18328 | 18.80782 | 36037 ft | 456 kts | 305° |
| 2026-04-15 11:54 | 40.22450 | 18.74476 | 36038 ft | 458 kts | 306° |
| 2026-04-15 11:55 | 40.26592 | 18.68133 | 36046 ft | 459 kts | 306° |
| 2026-04-15 11:55 | 40.30748 | 18.61766 | 36046 ft | 460 kts | 306° |
| 2026-04-15 11:56 | 40.34909 | 18.55375 | 36048 ft | 461 kts | 306° |
| 2026-04-15 11:56 | 40.39072 | 18.48969 | 36049 ft | 462 kts | 306° |
| 2026-04-15 11:57 | 40.45337 | 18.39309 | 36042 ft | 464 kts | 306° |
| 2026-04-15 11:58 | 40.49521 | 18.32829 | 36045 ft | 465 kts | 306° |
| 2026-04-15 11:58 | 40.53711 | 18.26335 | 36057 ft | 466 kts | 306° |
| 2026-04-15 11:59 | 40.57924 | 18.19783 | 36066 ft | 467 kts | 306° |
| 2026-04-15 11:59 | 40.62118 | 18.13245 | 36073 ft | 467 kts | 306° |
| 2026-04-15 12:00 | 40.66306 | 18.06697 | 36078 ft | 467 kts | 306° |
| 2026-04-15 12:00 | 40.70494 | 18.00153 | 36082 ft | 467 kts | 306° |
| 2026-04-15 12:01 | 40.74692 | 17.93601 | 36084 ft | 467 kts | 306° |
| 2026-04-15 12:01 | 40.78870 | 17.87033 | 36083 ft | 467 kts | 306° |
| 2026-04-15 12:02 | 40.83040 | 17.80455 | 36078 ft | 467 kts | 306° |
| 2026-04-15 12:02 | 40.87215 | 17.73874 | 36078 ft | 467 kts | 306° |
| 2026-04-15 12:03 | 40.91383 | 17.67294 | 36082 ft | 467 kts | 306° |
| 2026-04-15 12:03 | 40.95544 | 17.60707 | 36082 ft | 466 kts | 306° |
| 2026-04-15 12:04 | 40.99694 | 17.54121 | 36083 ft | 466 kts | 306° |
| 2026-04-15 12:04 | 41.03828 | 17.47522 | 36087 ft | 465 kts | 306° |
| 2026-04-15 12:05 | 41.07957 | 17.40936 | 36086 ft | 464 kts | 306° |
| 2026-04-15 12:05 | 41.12085 | 17.34355 | 36087 ft | 464 kts | 307° |
| 2026-04-15 12:06 | 41.16198 | 17.27769 | 36083 ft | 463 kts | 307° |
| 2026-04-15 12:06 | 41.20297 | 17.21179 | 36083 ft | 463 kts | 307° |
| 2026-04-15 12:07 | 41.23732 | 17.15665 | 36084 ft | 462 kts | 307° |
| 2026-04-15 12:07 | 41.27820 | 17.09078 | 36086 ft | 462 kts | 307° |
| 2026-04-15 12:08 | 41.31904 | 17.02480 | 36084 ft | 461 kts | 307° |
| 2026-04-15 12:08 | 41.35977 | 16.95883 | 36086 ft | 461 kts | 307° |
| 2026-04-15 12:09 | 41.40045 | 16.89284 | 36086 ft | 461 kts | 307° |
| 2026-04-15 12:09 | 41.44110 | 16.82681 | 36077 ft | 461 kts | 307° |
| 2026-04-15 12:10 | 41.48170 | 16.76080 | 36076 ft | 460 kts | 307° |
| 2026-04-15 12:10 | 41.52218 | 16.69463 | 36069 ft | 460 kts | 307° |
| 2026-04-15 12:11 | 41.56261 | 16.62841 | 36068 ft | 460 kts | 307° |
| 2026-04-15 12:11 | 41.60307 | 16.56209 | 36067 ft | 460 kts | 307° |
| 2026-04-15 12:12 | 41.64347 | 16.49567 | 36066 ft | 460 kts | 307° |
| 2026-04-15 12:12 | 41.68408 | 16.42872 | 36072 ft | 461 kts | 307° |
| 2026-04-15 12:13 | 41.72442 | 16.36209 | 36063 ft | 461 kts | 307° |
| 2026-04-15 12:13 | 41.76477 | 16.29547 | 36060 ft | 461 kts | 307° |
| 2026-04-15 12:14 | 41.80505 | 16.22867 | 36060 ft | 461 kts | 307° |
| 2026-04-15 12:14 | 41.84531 | 16.16172 | 36049 ft | 461 kts | 307° |
| 2026-04-15 12:15 | 41.88565 | 16.09456 | 36048 ft | 462 kts | 307° |
| 2026-04-15 12:15 | 41.92827 | 16.03017 | 36056 ft | 463 kts | 317° |
| 2026-04-15 12:16 | 41.97606 | 15.97216 | 36055 ft | 463 kts | 317° |
| 2026-04-15 12:16 | 42.02372 | 15.91402 | 36062 ft | 462 kts | 317° |
| 2026-04-15 12:17 | 42.07127 | 15.85578 | 36069 ft | 462 kts | 317° |
| 2026-04-15 12:17 | 42.11876 | 15.79754 | 36063 ft | 462 kts | 317° |
| 2026-04-15 12:18 | 42.16629 | 15.73925 | 36065 ft | 462 kts | 317° |
| 2026-04-15 12:18 | 42.21347 | 15.68107 | 36062 ft | 461 kts | 317° |
| 2026-04-15 12:19 | 42.26081 | 15.62257 | 36059 ft | 461 kts | 317° |
| 2026-04-15 12:19 | 42.30842 | 15.56365 | 36061 ft | 461 kts | 317° |
| 2026-04-15 12:20 | 42.35573 | 15.50500 | 36057 ft | 461 kts | 317° |
| 2026-04-15 12:20 | 42.40301 | 15.44627 | 36064 ft | 461 kts | 317° |
| 2026-04-15 12:21 | 42.45023 | 15.38742 | 36065 ft | 461 kts | 317° |
| 2026-04-15 12:21 | 42.49740 | 15.32850 | 36073 ft | 461 kts | 317° |
| 2026-04-15 12:22 | 42.54458 | 15.26949 | 36069 ft | 461 kts | 317° |
| 2026-04-15 12:22 | 42.59174 | 15.21049 | 36072 ft | 461 kts | 317° |
| 2026-04-15 12:23 | 42.63886 | 15.15145 | 36068 ft | 461 kts | 317° |
| 2026-04-15 12:23 | 42.68588 | 15.09228 | 36076 ft | 460 kts | 317° |
| 2026-04-15 12:24 | 42.73282 | 15.03300 | 36071 ft | 460 kts | 317° |
| 2026-04-15 12:24 | 42.77912 | 14.97449 | 36077 ft | 460 kts | 317° |
| 2026-04-15 12:25 | 42.82597 | 14.91524 | 36081 ft | 460 kts | 317° |
| 2026-04-15 12:25 | 42.87277 | 14.85586 | 36077 ft | 459 kts | 317° |
| 2026-04-15 12:26 | 42.91940 | 14.79637 | 36077 ft | 459 kts | 317° |
| 2026-04-15 12:26 | 42.96605 | 14.73678 | 36080 ft | 459 kts | 317° |
| 2026-04-15 12:27 | 43.01301 | 14.67686 | 36082 ft | 459 kts | 317° |
| 2026-04-15 12:27 | 43.05963 | 14.61724 | 36086 ft | 459 kts | 317° |
| 2026-04-15 12:28 | 43.10617 | 14.55760 | 36082 ft | 459 kts | 317° |
| 2026-04-15 12:28 | 43.15263 | 14.49780 | 36083 ft | 459 kts | 317° |
| 2026-04-15 12:29 | 43.19906 | 14.43785 | 36092 ft | 459 kts | 317° |
| 2026-04-15 12:29 | 43.24545 | 14.37786 | 36087 ft | 458 kts | 317° |
| 2026-04-15 12:30 | 43.29191 | 14.31783 | 36086 ft | 458 kts | 316° |
| 2026-04-15 12:30 | 43.33827 | 14.25765 | 36088 ft | 458 kts | 316° |
| 2026-04-15 12:31 | 43.38453 | 14.19747 | 36092 ft | 458 kts | 316° |
| 2026-04-15 12:31 | 43.43079 | 14.13708 | 36098 ft | 458 kts | 316° |
| 2026-04-15 12:32 | 43.47740 | 14.07726 | 36093 ft | 458 kts | 317° |
| 2026-04-15 12:32 | 43.52476 | 14.01861 | 36098 ft | 458 kts | 318° |
| 2026-04-15 12:33 | 43.57216 | 13.96001 | 36104 ft | 458 kts | 317° |
| 2026-04-15 12:33 | 43.61925 | 13.90103 | 36113 ft | 457 kts | 317° |
| 2026-04-15 12:34 | 43.66618 | 13.84176 | 36108 ft | 457 kts | 317° |
| 2026-04-15 12:34 | 43.71330 | 13.78210 | 36123 ft | 456 kts | 317° |
| 2026-04-15 12:35 | 43.76006 | 13.72283 | 36114 ft | 456 kts | 317° |
| 2026-04-15 12:35 | 43.80688 | 13.66354 | 36116 ft | 456 kts | 317° |
| 2026-04-15 12:36 | 43.85364 | 13.60420 | 36115 ft | 456 kts | 317° |
| 2026-04-15 12:36 | 43.90032 | 13.54478 | 36117 ft | 456 kts | 317° |
| 2026-04-15 12:37 | 43.94697 | 13.48528 | 36123 ft | 455 kts | 317° |
| 2026-04-15 12:37 | 43.99356 | 13.42575 | 36126 ft | 455 kts | 317° |
| 2026-04-15 12:38 | 44.04000 | 13.36613 | 36133 ft | 454 kts | 316° |
| 2026-04-15 12:38 | 44.08630 | 13.30654 | 36134 ft | 453 kts | 317° |
| 2026-04-15 12:39 | 44.13230 | 13.24750 | 36139 ft | 452 kts | 317° |
| 2026-04-15 12:39 | 44.17100 | 13.19769 | 36139 ft | 452 kts | 316° |
| 2026-04-15 12:40 | 44.21693 | 13.13816 | 36141 ft | 450 kts | 316° |
| 2026-04-15 12:40 | 44.26278 | 13.07879 | 36145 ft | 449 kts | 317° |
| 2026-04-15 12:41 | 44.30849 | 13.01948 | 36149 ft | 448 kts | 316° |
| 2026-04-15 12:41 | 44.35407 | 12.96021 | 36151 ft | 447 kts | 316° |
| 2026-04-15 12:42 | 44.39950 | 12.90090 | 36153 ft | 446 kts | 316° |
| 2026-04-15 12:42 | 44.44483 | 12.84166 | 36158 ft | 445 kts | 316° |
| 2026-04-15 12:43 | 44.49001 | 12.78259 | 36167 ft | 444 kts | 316° |
| 2026-04-15 12:43 | 44.53517 | 12.72349 | 36163 ft | 443 kts | 319° |
| 2026-04-15 12:44 | 44.58542 | 12.67362 | 36163 ft | 443 kts | 326° |
| 2026-04-15 12:44 | 44.63680 | 12.62589 | 36164 ft | 443 kts | 326° |
| 2026-04-15 12:45 | 44.68821 | 12.57819 | 36161 ft | 443 kts | 327° |
| 2026-04-15 12:45 | 44.73957 | 12.53043 | 36162 ft | 442 kts | 327° |
| 2026-04-15 12:46 | 44.79080 | 12.48254 | 36164 ft | 442 kts | 327° |
| 2026-04-15 12:46 | 44.84195 | 12.43452 | 36168 ft | 441 kts | 327° |
| 2026-04-15 12:47 | 44.89304 | 12.38654 | 36173 ft | 441 kts | 327° |
| 2026-04-15 12:47 | 44.94413 | 12.33868 | 36171 ft | 440 kts | 327° |
| 2026-04-15 12:48 | 44.99503 | 12.29077 | 36110 ft | 440 kts | 327° |
| 2026-04-15 12:48 | 45.01977 | 12.26737 | 35756 ft | 439 kts | 327° |
| 2026-04-15 12:48 | 45.04553 | 12.24300 | 35016 ft | 442 kts | 327° |
| 2026-04-15 12:48 | 45.07120 | 12.21873 | 34263 ft | 445 kts | 327° |
| 2026-04-15 12:49 | 45.09708 | 12.19426 | 33324 ft | 450 kts | 327° |
| 2026-04-15 12:49 | 45.12316 | 12.16956 | 32490 ft | 452 kts | 326° |
| 2026-04-15 12:49 | 45.14936 | 12.14470 | 31592 ft | 455 kts | 325° |
| 2026-04-15 12:49 | 45.17576 | 12.11959 | 30682 ft | 459 kts | 324° |
| 2026-04-15 12:50 | 45.20240 | 12.09419 | 29640 ft | 464 kts | 324° |
| 2026-04-15 12:50 | 45.22926 | 12.06854 | 28585 ft | 467 kts | 324° |
| 2026-04-15 12:50 | 45.25634 | 12.04272 | 27488 ft | 470 kts | 324° |
| 2026-04-15 12:50 | 45.28349 | 12.01684 | 26711 ft | 467 kts | 325° |
| 2026-04-15 12:51 | 45.31033 | 11.99126 | 25997 ft | 462 kts | 325° |
| 2026-04-15 12:51 | 45.33690 | 11.96593 | 25263 ft | 458 kts | 325° |
| 2026-04-15 12:51 | 45.36320 | 11.94081 | 24516 ft | 454 kts | 325° |
| 2026-04-15 12:51 | 45.38930 | 11.91584 | 23806 ft | 450 kts | 325° |
| 2026-04-15 12:52 | 45.41516 | 11.89102 | 23006 ft | 446 kts | 325° |
| 2026-04-15 12:52 | 45.44066 | 11.86652 | 22315 ft | 440 kts | 325° |
| 2026-04-15 12:52 | 45.46584 | 11.84227 | 21607 ft | 435 kts | 325° |
| 2026-04-15 12:52 | 45.49076 | 11.81823 | 20930 ft | 429 kts | 325° |
| 2026-04-15 12:53 | 45.51533 | 11.79450 | 20249 ft | 424 kts | 325° |
| 2026-04-15 12:53 | 45.53962 | 11.77105 | 19613 ft | 419 kts | 325° |
| 2026-04-15 12:53 | 45.56367 | 11.74779 | 18990 ft | 415 kts | 325° |
| 2026-04-15 12:53 | 45.58747 | 11.72475 | 18365 ft | 411 kts | 325° |
| 2026-04-15 12:54 | 45.61101 | 11.70193 | 17736 ft | 407 kts | 325° |
| 2026-04-15 12:54 | 45.63497 | 11.68106 | 17164 ft | 402 kts | 333° |
| 2026-04-15 12:54 | 45.66087 | 11.66633 | 16584 ft | 399 kts | 342° |
| 2026-04-15 12:54 | 45.68737 | 11.65532 | 15992 ft | 395 kts | 343° |
| 2026-04-15 12:55 | 45.71394 | 11.64425 | 15417 ft | 391 kts | 343° |
| 2026-04-15 12:55 | 45.73997 | 11.63334 | 14812 ft | 387 kts | 343° |
| 2026-04-15 12:55 | 45.76527 | 11.62268 | 14211 ft | 371 kts | 343° |
| 2026-04-15 12:55 | 45.78916 | 11.61259 | 13622 ft | 357 kts | 343° |
| 2026-04-15 12:56 | 45.81219 | 11.60283 | 13385 ft | 334 kts | 343° |
| 2026-04-15 12:56 | 45.83379 | 11.59368 | 13205 ft | 313 kts | 343° |
| 2026-04-15 12:56 | 45.85395 | 11.58518 | 13084 ft | 293 kts | 343° |
| 2026-04-15 12:56 | 45.87292 | 11.57718 | 12958 ft | 275 kts | 343° |
| 2026-04-15 12:57 | 45.89076 | 11.56966 | 12839 ft | 262 kts | 343° |
| 2026-04-15 12:57 | 45.90816 | 11.56225 | 12726 ft | 259 kts | 343° |
| 2026-04-15 12:57 | 45.92539 | 11.55491 | 12606 ft | 258 kts | 343° |
| 2026-04-15 12:57 | 45.94259 | 11.54761 | 12481 ft | 257 kts | 343° |
| 2026-04-15 12:58 | 45.95970 | 11.54035 | 12379 ft | 256 kts | 343° |
| 2026-04-15 12:58 | 45.97634 | 11.53132 | 12267 ft | 255 kts | 328° |
| 2026-04-15 12:58 | 45.98953 | 11.51467 | 12156 ft | 253 kts | 305° |
| 2026-04-15 12:58 | 45.99719 | 11.49287 | 12164 ft | 252 kts | 284° |
| 2026-04-15 12:59 | 46.00202 | 11.44291 | 12162 ft | 253 kts | 276° |
| 2026-04-15 12:59 | 46.00413 | 11.41781 | 12164 ft | 253 kts | 276° |
| 2026-04-15 12:59 | 46.00624 | 11.39274 | 12160 ft | 251 kts | 276° |
| 2026-04-15 13:00 | 46.00829 | 11.36825 | 12162 ft | 241 kts | 276° |
| 2026-04-15 13:00 | 46.01024 | 11.34489 | 12159 ft | 229 kts | 276° |
| 2026-04-15 13:00 | 46.01207 | 11.32272 | 12163 ft | 220 kts | 276° |
| 2026-04-15 13:00 | 46.01386 | 11.30099 | 12163 ft | 218 kts | 276° |
| 2026-04-15 13:01 | 46.01562 | 11.27934 | 12169 ft | 218 kts | 276° |
| 2026-04-15 13:01 | 46.01739 | 11.25769 | 12175 ft | 218 kts | 276° |
| 2026-04-15 13:01 | 46.01912 | 11.23661 | 12176 ft | 218 kts | 276° |
| 2026-04-15 13:01 | 46.02092 | 11.21499 | 12174 ft | 218 kts | 276° |
| 2026-04-15 13:02 | 46.02272 | 11.19339 | 12178 ft | 218 kts | 276° |
| 2026-04-15 13:02 | 46.02583 | 11.17215 | 12173 ft | 217 kts | 294° |
| 2026-04-15 13:02 | 46.03424 | 11.15425 | 12183 ft | 218 kts | 317° |
| 2026-04-15 13:02 | 46.04695 | 11.14249 | 12066 ft | 222 kts | 339° |
| 2026-04-15 13:03 | 46.06266 | 11.13901 | 11463 ft | 238 kts | 6° |
| 2026-04-15 13:03 | 46.07914 | 11.14498 | 10844 ft | 251 kts | 18° |
| 2026-04-15 13:03 | 46.09608 | 11.15277 | 10317 ft | 254 kts | 18° |
| 2026-04-15 13:03 | 46.11257 | 11.16023 | 10197 ft | 247 kts | 17° |
| 2026-04-15 13:04 | 46.12944 | 11.16724 | 9632 ft | 251 kts | 15° |
| 2026-04-15 13:04 | 46.14617 | 11.17376 | 9220 ft | 247 kts | 15° |
| 2026-04-15 13:04 | 46.16257 | 11.18009 | 8853 ft | 242 kts | 15° |
| 2026-04-15 13:04 | 46.17856 | 11.18628 | 8501 ft | 238 kts | 15° |
| 2026-04-15 13:05 | 46.19436 | 11.19243 | 8148 ft | 233 kts | 15° |
| 2026-04-15 13:05 | 46.20994 | 11.19850 | 7804 ft | 230 kts | 15° |
| 2026-04-15 13:05 | 46.22513 | 11.20444 | 7491 ft | 222 kts | 15° |
| 2026-04-15 13:05 | 46.23958 | 11.21017 | 7155 ft | 212 kts | 18° |
| 2026-04-15 13:06 | 46.25330 | 11.21755 | 6825 ft | 202 kts | 21° |
| 2026-04-15 13:06 | 46.26596 | 11.22456 | 6485 ft | 187 kts | 21° |
| 2026-04-15 13:06 | 46.27768 | 11.23108 | 6166 ft | 174 kts | 22° |
| 2026-04-15 13:06 | 46.28844 | 11.23709 | 5919 ft | 160 kts | 21° |
| 2026-04-15 13:07 | 46.29870 | 11.24279 | 5653 ft | 156 kts | 21° |
| 2026-04-15 13:07 | 46.30882 | 11.24842 | 5338 ft | 155 kts | 21° |
| 2026-04-15 13:07 | 46.31888 | 11.25404 | 5023 ft | 155 kts | 22° |
| 2026-04-15 13:07 | 46.32892 | 11.25963 | 4709 ft | 154 kts | 21° |
| 2026-04-15 13:08 | 46.33890 | 11.26519 | 4388 ft | 153 kts | 22° |
| 2026-04-15 13:08 | 46.34882 | 11.27076 | 4061 ft | 152 kts | 22° |
| 2026-04-15 13:08 | 46.35860 | 11.27637 | 3615 ft | 152 kts | 26° |
| 2026-04-15 13:08 | 46.36781 | 11.28375 | 3182 ft | 151 kts | 35° |
| 2026-04-15 13:09 | 46.37629 | 11.29256 | 2852 ft | 150 kts | 36° |
| 2026-04-15 13:09 | 46.38495 | 11.30080 | 2513 ft | 148 kts | 34° |
| 2026-04-15 13:09 | 46.39402 | 11.30782 | 2308 ft | 148 kts | 24° |
| 2026-04-15 13:09 | 46.40387 | 11.31227 | 2114 ft | 149 kts | 11° |
| 2026-04-15 13:10 | 46.41411 | 11.31450 | 1834 ft | 149 kts | 7° |
| 2026-04-15 13:10 | 46.42426 | 11.31684 | 1559 ft | 147 kts | 10° |
| 2026-04-15 13:10 | 46.43429 | 11.31957 | 1292 ft | 147 kts | 12° |
| 2026-04-15 13:10 | 46.44436 | 11.32240 | 1027 ft | 146 kts | 9° |
| 2026-04-15 13:11 | 46.45442 | 11.32484 | 817 ft | 146 kts | 11° |
| 2026-04-15 13:11 | 46.46296 | 11.32720 | 786 ft | 97 kts | 11° |
| 2026-04-15 13:11 | 46.46579 | 11.32789 | 785 ft | 22 kts | 8° |
| 2026-04-15 13:11 | 46.46675 | 11.32822 | 785 ft | 11 kts | 40° |
| 2026-04-15 13:12 | 46.46677 | 11.32898 | 787 ft | 7 kts | 101° |
| 2026-04-15 13:12 | 46.46656 | 11.32925 | 787 ft | 7 kts | 169° |
| 2026-04-15 13:12 | 46.46599 | 11.32913 | 787 ft | 10 kts | 189° |
| 2026-04-15 13:12 | 46.46521 | 11.32895 | 787 ft | 13 kts | 189° |
| 2026-04-15 13:13 | 46.46424 | 11.32872 | 787 ft | 15 kts | 189° |
| 2026-04-15 13:13 | 46.46339 | 11.32847 | 787 ft | 12 kts | 192° |
| 2026-04-15 13:13 | 46.46310 | 11.32890 | 787 ft | 5 kts | 100° |
| 2026-04-15 13:13 | 46.46309 | 11.32902 | 787 ft | 0 kts | 101° |